SeattleWeather.com

KSEA - Seattle/Metro, Washington, USA
Distance from station: SSW 24mi, 39km
Updated: Sun, 23-Jul-2017 12:53pm PDT
Overcast
Overcast
 Wind from WNW
Wind: WNW 9 mph , 15 km/h
Temperature: 72°F , 22°C
Dew Point: 57°F , 14°C
Humidity: 61%
Barometer: 30.08 inHg , 1018.6 hPa
Clouds: Overcast
Visibility: 10 miles , 16 km
Cloud details: Partly Cloudy 2700 ft
Mostly Cloudy 3500 ft
Overcast 4400 ft
2017/07/23 19:53 KSEA 231953Z 30008KT 10SM SCT027 BKN035 OVC044 22/14 A3008 RMK AO2 SLP191 T02170139
KBFI - Seattle/Boeing, Washington, USA
Distance from station: SSW 18mi, 29km
Updated: Sun, 23-Jul-2017 12:53pm PDT
Mostly Cloudy
Mostly Cloudy
 Wind from WNW
Wind: WNW 8 mph , 13 km/h
Temperature: 72°F , 22°C
Dew Point: 57°F , 14°C
Humidity: 61%
Barometer: 30.07 inHg , 1018.3 hPa
Clouds: Mostly Cloudy
Visibility: 10 miles , 16 km
Cloud details: Few Clouds 2500 ft
Partly Cloudy 5000 ft
Mostly Cloudy 18000 ft
2017/07/23 19:53 KBFI 231953Z 29007KT 10SM FEW025 SCT050 BKN180 22/14 A3007 RMK AO2 SLP183 T02170144
NWS Forecast for 2 Miles WNW South Seattle WA
National Weather Service Forecast for: 2 Miles WNW South Seattle WA
Issued by: National Weather Service Seattle, WA
Updated: 8:00 am PDT Jul 23, 2017
 
This
Afternoon
This Afternoon: Mostly sunny, with a high near 77. North northwest wind 7 to 10 mph.
Mostly Sunny
Tonight

Tonight: Mostly clear, with a low around 58. Northeast wind 9 to 15 mph.
Mostly Clear
Monday

Monday: Sunny, with a high near 81. North northwest wind 7 to 11 mph.
Sunny
Monday
Night
Monday Night: Mostly clear, with a low around 60. Northeast wind 10 to 13 mph.
Mostly Clear
Tuesday

Tuesday: Sunny, with a high near 84. North northwest wind 6 to 11 mph.
Sunny
Tuesday
Night
Tuesday Night: Mostly clear, with a low around 60.
Mostly Clear
Wednesday

Wednesday: Sunny, with a high near 80.
Sunny
Wednesday
Night
Wednesday Night: Partly cloudy, with a low around 59.
Partly Cloudy
Thursday

Thursday: Mostly sunny, with a high near 77.
Mostly Sunny
Hi 77 °F Lo 58 °F Hi 81 °F Lo 60 °F Hi 84 °F Lo 60 °F Hi 80 °F Lo 59 °F Hi 77 °F

 

This Afternoon
 
Mostly sunny, with a high near 77. North northwest wind 7 to 10 mph.
Tonight
 
Mostly clear, with a low around 58. Northeast wind 9 to 15 mph.
Monday
 
Sunny, with a high near 81. North northwest wind 7 to 11 mph.
Monday Night
 
Mostly clear, with a low around 60. Northeast wind 10 to 13 mph.
Tuesday
 
Sunny, with a high near 84. North northwest wind 6 to 11 mph.
Tuesday Night
 
Mostly clear, with a low around 60.
Wednesday
 
Sunny, with a high near 80.
Wednesday Night
 
Partly cloudy, with a low around 59.
Thursday
 
Mostly sunny, with a high near 77.
Thursday Night
 
Partly cloudy, with a low around 58.
Friday
 
Sunny, with a high near 78.
Friday Night
 
Mostly clear, with a low around 57.
Saturday
 
Sunny, with a high near 78.